sensor_id;sensor_type;location;lat;lon;timestamp;P1;durP1;ratioP1;P2;durP2;ratioP2
54805;SDS011;62866;55.776;37.496;2023-04-24T00:01:29;12.38;;;4.72;;
54805;SDS011;62866;55.776;37.496;2023-04-24T00:03:54;9.65;;;4.57;;
54805;SDS011;62866;55.776;37.496;2023-04-24T00:06:25;12.70;;;4.43;;
54805;SDS011;62866;55.776;37.496;2023-04-24T00:08:58;8.40;;;4.30;;
54805;SDS011;62866;55.776;37.496;2023-04-24T00:11:25;11.25;;;4.35;;
54805;SDS011;62866;55.776;37.496;2023-04-24T00:13:51;7.72;;;3.80;;
54805;SDS011;62866;55.776;37.496;2023-04-24T00:16:16;12.38;;;4.72;;
54805;SDS011;62866;55.776;37.496;2023-04-24T00:18:42;7.15;;;3.97;;
54805;SDS011;62866;55.776;37.496;2023-04-24T00:21:07;8.00;;;4.65;;
54805;SDS011;62866;55.776;37.496;2023-04-24T00:23:33;10.60;;;5.07;;
54805;SDS011;62866;55.776;37.496;2023-04-24T00:25:58;9.70;;;4.10;;
54805;SDS011;62866;55.776;37.496;2023-04-24T00:28:24;5.80;;;3.75;;
54805;SDS011;62866;55.776;37.496;2023-04-24T00:30:50;8.68;;;4.40;;
54805;SDS011;62866;55.776;37.496;2023-04-24T00:33:15;6.93;;;4.30;;
54805;SDS011;62866;55.776;37.496;2023-04-24T00:35:41;9.50;;;4.40;;
54805;SDS011;62866;55.776;37.496;2023-04-24T00:38:06;13.25;;;5.25;;
54805;SDS011;62866;55.776;37.496;2023-04-24T00:40:32;12.43;;;4.90;;
54805;SDS011;62866;55.776;37.496;2023-04-24T00:42:58;14.15;;;5.88;;
54805;SDS011;62866;55.776;37.496;2023-04-24T00:45:23;9.75;;;5.00;;
54805;SDS011;62866;55.776;37.496;2023-04-24T00:47:49;8.48;;;4.53;;
54805;SDS011;62866;55.776;37.496;2023-04-24T00:50:17;11.77;;;5.65;;
54805;SDS011;62866;55.776;37.496;2023-04-24T00:52:44;10.27;;;5.30;;
54805;SDS011;62866;55.776;37.496;2023-04-24T00:55:10;10.85;;;5.03;;
54805;SDS011;62866;55.776;37.496;2023-04-24T00:57:36;7.75;;;4.55;;
54805;SDS011;62866;55.776;37.496;2023-04-24T01:00:02;8.95;;;4.40;;
54805;SDS011;62866;55.776;37.496;2023-04-24T01:02:30;8.95;;;5.35;;
54805;SDS011;62866;55.776;37.496;2023-04-24T01:05:00;13.13;;;5.18;;
54805;SDS011;62866;55.776;37.496;2023-04-24T01:07:26;10.10;;;5.35;;
54805;SDS011;62866;55.776;37.496;2023-04-24T01:09:52;10.65;;;5.55;;
54805;SDS011;62866;55.776;37.496;2023-04-24T01:12:18;9.10;;;5.45;;
54805;SDS011;62866;55.776;37.496;2023-04-24T01:14:44;14.07;;;5.68;;
54805;SDS011;62866;55.776;37.496;2023-04-24T01:17:11;10.82;;;5.55;;
54805;SDS011;62866;55.776;37.496;2023-04-24T01:19:37;10.25;;;5.55;;
54805;SDS011;62866;55.776;37.496;2023-04-24T01:22:03;9.13;;;5.35;;
54805;SDS011;62866;55.776;37.496;2023-04-24T01:24:37;13.65;;;5.60;;
54805;SDS011;62866;55.776;37.496;2023-04-24T01:27:03;8.90;;;4.78;;
54805;SDS011;62866;55.776;37.496;2023-04-24T01:29:29;10.18;;;4.22;;
54805;SDS011;62866;55.776;37.496;2023-04-24T01:31:55;13.95;;;5.50;;
54805;SDS011;62866;55.776;37.496;2023-04-24T01:34:20;12.82;;;6.40;;
54805;SDS011;62866;55.776;37.496;2023-04-24T01:36:46;13.75;;;5.47;;
54805;SDS011;62866;55.776;37.496;2023-04-24T01:39:13;8.27;;;5.40;;
54805;SDS011;62866;55.776;37.496;2023-04-24T01:41:38;10.52;;;5.80;;
54805;SDS011;62866;55.776;37.496;2023-04-24T01:44:04;12.07;;;5.80;;
54805;SDS011;62866;55.776;37.496;2023-04-24T01:46:30;10.05;;;5.57;;
54805;SDS011;62866;55.776;37.496;2023-04-24T01:48:56;9.77;;;5.63;;
54805;SDS011;62866;55.776;37.496;2023-04-24T01:51:24;13.02;;;6.38;;
54805;SDS011;62866;55.776;37.496;2023-04-24T01:53:50;10.93;;;5.82;;
54805;SDS011;62866;55.776;37.496;2023-04-24T01:56:16;9.95;;;5.03;;
54805;SDS011;62866;55.776;37.496;2023-04-24T01:58:41;9.32;;;5.78;;
54805;SDS011;62866;55.776;37.496;2023-04-24T02:01:08;10.20;;;5.85;;
54805;SDS011;62866;55.776;37.496;2023-04-24T02:03:34;12.10;;;5.78;;
54805;SDS011;62866;55.776;37.496;2023-04-24T02:05:59;10.07;;;5.95;;
54805;SDS011;62866;55.776;37.496;2023-04-24T02:08:25;13.82;;;6.85;;
54805;SDS011;62866;55.776;37.496;2023-04-24T02:10:50;11.57;;;6.15;;
54805;SDS011;62866;55.776;37.496;2023-04-24T02:13:16;8.75;;;5.60;;
54805;SDS011;62866;55.776;37.496;2023-04-24T02:15:42;14.73;;;6.13;;
54805;SDS011;62866;55.776;37.496;2023-04-24T02:18:07;11.45;;;6.03;;
54805;SDS011;62866;55.776;37.496;2023-04-24T02:20:33;12.68;;;5.93;;
54805;SDS011;62866;55.776;37.496;2023-04-24T02:23:00;13.05;;;6.40;;
54805;SDS011;62866;55.776;37.496;2023-04-24T02:25:26;13.75;;;6.60;;
54805;SDS011;62866;55.776;37.496;2023-04-24T02:27:52;10.50;;;6.22;;
54805;SDS011;62866;55.776;37.496;2023-04-24T02:30:17;10.88;;;6.13;;
54805;SDS011;62866;55.776;37.496;2023-04-24T02:32:43;12.35;;;7.45;;
54805;SDS011;62866;55.776;37.496;2023-04-24T02:35:08;10.77;;;6.22;;
54805;SDS011;62866;55.776;37.496;2023-04-24T02:37:34;13.15;;;6.57;;
54805;SDS011;62866;55.776;37.496;2023-04-24T02:40:00;13.25;;;7.28;;
54805;SDS011;62866;55.776;37.496;2023-04-24T02:42:25;15.55;;;8.13;;
54805;SDS011;62866;55.776;37.496;2023-04-24T02:44:51;13.13;;;7.35;;
54805;SDS011;62866;55.776;37.496;2023-04-24T02:47:16;14.57;;;6.30;;
54805;SDS011;62866;55.776;37.496;2023-04-24T02:49:42;16.50;;;7.10;;
54805;SDS011;62866;55.776;37.496;2023-04-24T02:52:07;13.65;;;7.57;;
54805;SDS011;62866;55.776;37.496;2023-04-24T02:54:33;14.02;;;6.75;;
54805;SDS011;62866;55.776;37.496;2023-04-24T02:56:58;16.55;;;7.70;;
54805;SDS011;62866;55.776;37.496;2023-04-24T02:59:24;13.10;;;7.88;;
54805;SDS011;62866;55.776;37.496;2023-04-24T03:01:52;12.18;;;7.82;;
54805;SDS011;62866;55.776;37.496;2023-04-24T03:04:17;10.70;;;7.10;;
54805;SDS011;62866;55.776;37.496;2023-04-24T03:06:45;16.48;;;7.22;;
54805;SDS011;62866;55.776;37.496;2023-04-24T03:09:11;10.77;;;6.97;;
54805;SDS011;62866;55.776;37.496;2023-04-24T03:11:36;14.75;;;7.55;;
54805;SDS011;62866;55.776;37.496;2023-04-24T03:14:02;16.33;;;6.78;;
54805;SDS011;62866;55.776;37.496;2023-04-24T03:16:27;13.82;;;7.65;;
54805;SDS011;62866;55.776;37.496;2023-04-24T03:18:53;12.35;;;6.60;;
54805;SDS011;62866;55.776;37.496;2023-04-24T03:21:18;14.50;;;6.60;;
54805;SDS011;62866;55.776;37.496;2023-04-24T03:23:44;12.88;;;7.40;;
54805;SDS011;62866;55.776;37.496;2023-04-24T03:26:10;14.43;;;6.75;;
54805;SDS011;62866;55.776;37.496;2023-04-24T03:28:35;12.82;;;6.78;;
54805;SDS011;62866;55.776;37.496;2023-04-24T03:31:02;9.98;;;6.47;;
54805;SDS011;62866;55.776;37.496;2023-04-24T03:33:28;21.60;;;8.40;;
54805;SDS011;62866;55.776;37.496;2023-04-24T03:35:54;13.65;;;7.22;;
54805;SDS011;62866;55.776;37.496;2023-04-24T03:38:19;12.77;;;6.95;;
54805;SDS011;62866;55.776;37.496;2023-04-24T03:40:45;15.18;;;6.45;;
54805;SDS011;62866;55.776;37.496;2023-04-24T03:43:10;11.25;;;5.90;;
54805;SDS011;62866;55.776;37.496;2023-04-24T03:45:36;10.63;;;6.90;;
54805;SDS011;62866;55.776;37.496;2023-04-24T03:48:02;13.43;;;7.18;;
54805;SDS011;62866;55.776;37.496;2023-04-24T03:50:27;12.15;;;6.45;;
54805;SDS011;62866;55.776;37.496;2023-04-24T03:52:54;15.25;;;6.78;;
54805;SDS011;62866;55.776;37.496;2023-04-24T03:55:19;8.98;;;5.55;;
54805;SDS011;62866;55.776;37.496;2023-04-24T03:57:45;8.07;;;5.53;;
54805;SDS011;62866;55.776;37.496;2023-04-24T04:00:10;10.52;;;6.22;;
54805;SDS011;62866;55.776;37.496;2023-04-24T04:02:36;11.18;;;6.93;;
54805;SDS011;62866;55.776;37.496;2023-04-24T04:05:02;8.98;;;5.57;;
54805;SDS011;62866;55.776;37.496;2023-04-24T04:07:28;6.90;;;4.93;;
54805;SDS011;62866;55.776;37.496;2023-04-24T04:09:54;8.18;;;4.68;;
54805;SDS011;62866;55.776;37.496;2023-04-24T04:12:20;10.70;;;5.30;;
54805;SDS011;62866;55.776;37.496;2023-04-24T04:14:45;15.43;;;6.32;;
54805;SDS011;62866;55.776;37.496;2023-04-24T04:17:11;9.80;;;6.18;;
54805;SDS011;62866;55.776;37.496;2023-04-24T04:19:36;14.75;;;6.20;;
54805;SDS011;62866;55.776;37.496;2023-04-24T04:22:02;11.65;;;6.07;;
54805;SDS011;62866;55.776;37.496;2023-04-24T04:24:28;13.77;;;6.55;;
54805;SDS011;62866;55.776;37.496;2023-04-24T04:26:54;7.82;;;5.95;;
54805;SDS011;62866;55.776;37.496;2023-04-24T04:29:21;11.98;;;5.82;;
54805;SDS011;62866;55.776;37.496;2023-04-24T04:31:47;9.02;;;5.43;;
54805;SDS011;62866;55.776;37.496;2023-04-24T04:34:13;9.52;;;5.60;;
54805;SDS011;62866;55.776;37.496;2023-04-24T04:36:39;14.50;;;6.40;;
54805;SDS011;62866;55.776;37.496;2023-04-24T04:39:06;9.85;;;6.18;;
54805;SDS011;62866;55.776;37.496;2023-04-24T04:41:32;9.43;;;5.78;;
54805;SDS011;62866;55.776;37.496;2023-04-24T04:44:00;9.05;;;5.70;;
54805;SDS011;62866;55.776;37.496;2023-04-24T04:46:27;10.65;;;6.63;;
54805;SDS011;62866;55.776;37.496;2023-04-24T04:48:55;9.75;;;6.25;;
54805;SDS011;62866;55.776;37.496;2023-04-24T04:51:21;7.70;;;4.68;;
54805;SDS011;62866;55.776;37.496;2023-04-24T04:53:47;9.88;;;5.03;;
54805;SDS011;62866;55.776;37.496;2023-04-24T04:56:12;11.38;;;5.70;;
54805;SDS011;62866;55.776;37.496;2023-04-24T04:58:38;7.75;;;4.68;;
54805;SDS011;62866;55.776;37.496;2023-04-24T05:01:03;10.88;;;5.18;;
54805;SDS011;62866;55.776;37.496;2023-04-24T05:03:29;11.15;;;6.20;;
54805;SDS011;62866;55.776;37.496;2023-04-24T05:05:55;8.60;;;5.70;;
54805;SDS011;62866;55.776;37.496;2023-04-24T05:08:20;11.43;;;6.20;;
54805;SDS011;62866;55.776;37.496;2023-04-24T05:10:46;11.65;;;5.88;;
54805;SDS011;62866;55.776;37.496;2023-04-24T05:13:12;10.43;;;5.32;;
54805;SDS011;62866;55.776;37.496;2023-04-24T05:15:37;15.35;;;7.63;;
54805;SDS011;62866;55.776;37.496;2023-04-24T05:18:03;8.00;;;5.88;;
54805;SDS011;62866;55.776;37.496;2023-04-24T05:20:28;12.48;;;5.88;;
54805;SDS011;62866;55.776;37.496;2023-04-24T05:22:54;8.45;;;7.05;;
54805;SDS011;62866;55.776;37.496;2023-04-24T05:25:20;8.20;;;5.85;;
54805;SDS011;62866;55.776;37.496;2023-04-24T05:27:46;6.93;;;5.40;;
54805;SDS011;62866;55.776;37.496;2023-04-24T05:30:11;9.38;;;5.50;;
54805;SDS011;62866;55.776;37.496;2023-04-24T05:32:37;16.13;;;6.40;;
54805;SDS011;62866;55.776;37.496;2023-04-24T05:35:03;7.90;;;5.63;;
54805;SDS011;62866;55.776;37.496;2023-04-24T05:37:29;10.25;;;5.88;;
54805;SDS011;62866;55.776;37.496;2023-04-24T05:39:54;5.63;;;4.95;;
54805;SDS011;62866;55.776;37.496;2023-04-24T05:42:20;10.32;;;5.60;;
54805;SDS011;62866;55.776;37.496;2023-04-24T05:44:45;10.45;;;5.70;;
54805;SDS011;62866;55.776;37.496;2023-04-24T05:47:11;6.25;;;5.43;;
54805;SDS011;62866;55.776;37.496;2023-04-24T05:49:36;6.65;;;4.75;;
54805;SDS011;62866;55.776;37.496;2023-04-24T05:52:02;9.93;;;5.57;;
54805;SDS011;62866;55.776;37.496;2023-04-24T05:54:29;9.57;;;6.13;;
54805;SDS011;62866;55.776;37.496;2023-04-24T05:56:54;11.07;;;5.65;;
54805;SDS011;62866;55.776;37.496;2023-04-24T05:59:20;12.52;;;5.90;;
54805;SDS011;62866;55.776;37.496;2023-04-24T06:01:46;11.85;;;5.45;;
54805;SDS011;62866;55.776;37.496;2023-04-24T06:04:12;13.38;;;5.60;;
54805;SDS011;62866;55.776;37.496;2023-04-24T06:06:39;12.45;;;6.63;;
54805;SDS011;62866;55.776;37.496;2023-04-24T06:09:05;13.10;;;6.35;;
54805;SDS011;62866;55.776;37.496;2023-04-24T06:11:30;10.30;;;5.15;;
54805;SDS011;62866;55.776;37.496;2023-04-24T06:13:56;11.88;;;5.78;;
54805;SDS011;62866;55.776;37.496;2023-04-24T06:16:22;9.75;;;5.45;;
54805;SDS011;62866;55.776;37.496;2023-04-24T06:18:47;14.38;;;5.25;;
54805;SDS011;62866;55.776;37.496;2023-04-24T06:21:13;11.80;;;5.43;;
54805;SDS011;62866;55.776;37.496;2023-04-24T06:23:39;11.90;;;5.65;;
54805;SDS011;62866;55.776;37.496;2023-04-24T06:26:04;9.95;;;5.55;;
54805;SDS011;62866;55.776;37.496;2023-04-24T06:28:30;14.00;;;5.80;;
54805;SDS011;62866;55.776;37.496;2023-04-24T06:30:55;12.18;;;4.95;;
54805;SDS011;62866;55.776;37.496;2023-04-24T06:33:21;10.20;;;5.55;;
54805;SDS011;62866;55.776;37.496;2023-04-24T06:35:46;11.70;;;5.43;;
54805;SDS011;62866;55.776;37.496;2023-04-24T06:38:12;9.05;;;5.75;;
54805;SDS011;62866;55.776;37.496;2023-04-24T06:40:37;9.27;;;5.10;;
54805;SDS011;62866;55.776;37.496;2023-04-24T06:43:03;9.77;;;4.95;;
54805;SDS011;62866;55.776;37.496;2023-04-24T06:45:29;5.68;;;4.00;;
54805;SDS011;62866;55.776;37.496;2023-04-24T06:47:55;8.25;;;4.50;;
54805;SDS011;62866;55.776;37.496;2023-04-24T06:50:21;7.70;;;4.80;;
54805;SDS011;62866;55.776;37.496;2023-04-24T06:52:47;7.03;;;4.03;;
54805;SDS011;62866;55.776;37.496;2023-04-24T06:55:13;9.15;;;4.18;;
54805;SDS011;62866;55.776;37.496;2023-04-24T06:57:40;5.53;;;4.03;;
54805;SDS011;62866;55.776;37.496;2023-04-24T07:00:06;5.40;;;3.60;;
54805;SDS011;62866;55.776;37.496;2023-04-24T07:02:34;10.45;;;3.88;;
54805;SDS011;62866;55.776;37.496;2023-04-24T07:05:00;8.75;;;4.45;;
54805;SDS011;62866;55.776;37.496;2023-04-24T07:07:26;9.30;;;4.05;;
54805;SDS011;62866;55.776;37.496;2023-04-24T07:09:52;11.18;;;7.28;;
54805;SDS011;62866;55.776;37.496;2023-04-24T07:12:19;6.90;;;4.70;;
54805;SDS011;62866;55.776;37.496;2023-04-24T07:14:46;6.93;;;4.05;;
54805;SDS011;62866;55.776;37.496;2023-04-24T07:17:12;6.93;;;4.50;;
54805;SDS011;62866;55.776;37.496;2023-04-24T07:19:38;6.57;;;4.03;;
54805;SDS011;62866;55.776;37.496;2023-04-24T07:22:04;6.80;;;4.07;;
54805;SDS011;62866;55.776;37.496;2023-04-24T07:24:29;7.28;;;4.20;;
54805;SDS011;62866;55.776;37.496;2023-04-24T07:26:57;6.35;;;3.78;;
54805;SDS011;62866;55.776;37.496;2023-04-24T07:29:22;6.30;;;4.13;;
54805;SDS011;62866;55.776;37.496;2023-04-24T07:31:48;8.13;;;4.38;;
54805;SDS011;62866;55.776;37.496;2023-04-24T07:34:13;7.15;;;4.18;;
54805;SDS011;62866;55.776;37.496;2023-04-24T07:36:40;5.00;;;3.45;;
54805;SDS011;62866;55.776;37.496;2023-04-24T07:39:06;7.10;;;4.35;;
54805;SDS011;62866;55.776;37.496;2023-04-24T07:41:33;5.10;;;4.20;;
54805;SDS011;62866;55.776;37.496;2023-04-24T07:43:58;6.70;;;4.13;;
54805;SDS011;62866;55.776;37.496;2023-04-24T07:46:24;8.32;;;4.35;;
54805;SDS011;62866;55.776;37.496;2023-04-24T07:48:50;9.02;;;4.18;;
54805;SDS011;62866;55.776;37.496;2023-04-24T07:51:19;4.78;;;3.50;;
54805;SDS011;62866;55.776;37.496;2023-04-24T07:53:44;9.65;;;4.00;;
54805;SDS011;62866;55.776;37.496;2023-04-24T07:56:10;4.82;;;3.90;;
54805;SDS011;62866;55.776;37.496;2023-04-24T07:58:36;5.45;;;3.85;;
54805;SDS011;62866;55.776;37.496;2023-04-24T08:01:01;5.70;;;3.83;;
54805;SDS011;62866;55.776;37.496;2023-04-24T08:03:27;7.25;;;3.45;;
54805;SDS011;62866;55.776;37.496;2023-04-24T08:05:52;5.03;;;3.63;;
54805;SDS011;62866;55.776;37.496;2023-04-24T08:08:20;5.30;;;3.60;;
54805;SDS011;62866;55.776;37.496;2023-04-24T08:10:48;7.38;;;4.10;;
54805;SDS011;62866;55.776;37.496;2023-04-24T08:13:14;7.47;;;3.92;;
54805;SDS011;62866;55.776;37.496;2023-04-24T08:15:39;6.85;;;3.75;;
54805;SDS011;62866;55.776;37.496;2023-04-24T08:18:05;5.03;;;3.63;;
54805;SDS011;62866;55.776;37.496;2023-04-24T08:20:31;3.67;;;3.08;;
54805;SDS011;62866;55.776;37.496;2023-04-24T08:22:56;4.60;;;3.72;;
54805;SDS011;62866;55.776;37.496;2023-04-24T08:25:22;5.60;;;3.88;;
54805;SDS011;62866;55.776;37.496;2023-04-24T08:27:49;6.63;;;3.97;;
54805;SDS011;62866;55.776;37.496;2023-04-24T08:30:16;4.10;;;3.50;;
54805;SDS011;62866;55.776;37.496;2023-04-24T08:32:41;5.30;;;3.15;;
54805;SDS011;62866;55.776;37.496;2023-04-24T08:35:07;4.93;;;3.60;;
54805;SDS011;62866;55.776;37.496;2023-04-24T08:37:34;5.70;;;4.47;;
54805;SDS011;62866;55.776;37.496;2023-04-24T08:40:00;4.43;;;3.63;;
54805;SDS011;62866;55.776;37.496;2023-04-24T08:42:29;4.45;;;3.85;;
54805;SDS011;62866;55.776;37.496;2023-04-24T08:44:58;5.70;;;3.72;;
54805;SDS011;62866;55.776;37.496;2023-04-24T08:47:24;6.15;;;3.58;;
54805;SDS011;62866;55.776;37.496;2023-04-24T08:49:51;8.73;;;3.63;;
54805;SDS011;62866;55.776;37.496;2023-04-24T08:52:19;5.70;;;4.22;;
54805;SDS011;62866;55.776;37.496;2023-04-24T08:54:46;7.53;;;3.33;;
54805;SDS011;62866;55.776;37.496;2023-04-24T08:57:13;5.43;;;3.25;;
54805;SDS011;62866;55.776;37.496;2023-04-24T08:59:40;5.55;;;3.50;;
54805;SDS011;62866;55.776;37.496;2023-04-24T09:02:05;9.90;;;3.25;;
54805;SDS011;62866;55.776;37.496;2023-04-24T09:04:35;4.43;;;3.30;;
54805;SDS011;62866;55.776;37.496;2023-04-24T09:07:02;5.88;;;3.20;;
54805;SDS011;62866;55.776;37.496;2023-04-24T09:09:31;3.55;;;3.22;;
54805;SDS011;62866;55.776;37.496;2023-04-24T09:11:58;4.47;;;3.80;;
54805;SDS011;62866;55.776;37.496;2023-04-24T09:14:23;6.60;;;3.67;;
54805;SDS011;62866;55.776;37.496;2023-04-24T09:16:49;5.60;;;3.42;;
54805;SDS011;62866;55.776;37.496;2023-04-24T09:19:16;3.83;;;2.88;;
54805;SDS011;62866;55.776;37.496;2023-04-24T09:21:41;5.88;;;3.63;;
54805;SDS011;62866;55.776;37.496;2023-04-24T09:24:15;6.10;;;3.80;;
54805;SDS011;62866;55.776;37.496;2023-04-24T09:26:43;5.05;;;3.85;;
54805;SDS011;62866;55.776;37.496;2023-04-24T09:29:14;3.97;;;3.28;;
54805;SDS011;62866;55.776;37.496;2023-04-24T09:31:43;5.72;;;3.70;;
54805;SDS011;62866;55.776;37.496;2023-04-24T09:34:19;4.20;;;3.35;;
54805;SDS011;62866;55.776;37.496;2023-04-24T09:36:50;4.57;;;3.45;;
54805;SDS011;62866;55.776;37.496;2023-04-24T09:39:16;4.43;;;3.28;;
54805;SDS011;62866;55.776;37.496;2023-04-24T09:41:54;4.53;;;3.30;;
54805;SDS011;62866;55.776;37.496;2023-04-24T09:44:25;3.90;;;3.25;;
54805;SDS011;62866;55.776;37.496;2023-04-24T09:46:56;6.45;;;3.90;;
54805;SDS011;62866;55.776;37.496;2023-04-24T09:49:24;4.00;;;3.40;;
54805;SDS011;62866;55.776;37.496;2023-04-24T09:52:06;4.65;;;3.08;;
54805;SDS011;62866;55.776;37.496;2023-04-24T09:54:33;5.80;;;3.00;;
54805;SDS011;62866;55.776;37.496;2023-04-24T09:56:59;4.72;;;3.03;;
54805;SDS011;62866;55.776;37.496;2023-04-24T09:59:27;5.38;;;3.10;;
54805;SDS011;62866;55.776;37.496;2023-04-24T10:01:52;5.03;;;3.38;;
54805;SDS011;62866;55.776;37.496;2023-04-24T10:04:19;5.53;;;4.43;;
54805;SDS011;62866;55.776;37.496;2023-04-24T10:06:49;3.25;;;2.85;;
54805;SDS011;62866;55.776;37.496;2023-04-24T10:09:19;7.07;;;3.70;;
54805;SDS011;62866;55.776;37.496;2023-04-24T10:11:47;4.60;;;3.25;;
54805;SDS011;62866;55.776;37.496;2023-04-24T10:14:18;3.83;;;3.28;;
54805;SDS011;62866;55.776;37.496;2023-04-24T10:16:48;3.78;;;2.95;;
54805;SDS011;62866;55.776;37.496;2023-04-24T10:19:15;5.10;;;3.13;;
54805;SDS011;62866;55.776;37.496;2023-04-24T10:21:41;6.10;;;3.25;;
54805;SDS011;62866;55.776;37.496;2023-04-24T10:24:14;3.80;;;3.10;;
54805;SDS011;62866;55.776;37.496;2023-04-24T10:26:46;5.30;;;3.03;;
54805;SDS011;62866;55.776;37.496;2023-04-24T10:29:14;6.65;;;3.05;;
54805;SDS011;62866;55.776;37.496;2023-04-24T10:31:41;3.42;;;2.90;;
54805;SDS011;62866;55.776;37.496;2023-04-24T10:34:10;5.53;;;3.58;;
54805;SDS011;62866;55.776;37.496;2023-04-24T10:36:37;6.13;;;3.00;;
54805;SDS011;62866;55.776;37.496;2023-04-24T10:39:07;4.45;;;3.22;;
54805;SDS011;62866;55.776;37.496;2023-04-24T10:41:39;6.43;;;3.22;;
54805;SDS011;62866;55.776;37.496;2023-04-24T10:44:08;4.22;;;2.90;;
54805;SDS011;62866;55.776;37.496;2023-04-24T10:46:35;3.78;;;2.97;;
54805;SDS011;62866;55.776;37.496;2023-04-24T10:49:04;4.50;;;3.33;;
54805;SDS011;62866;55.776;37.496;2023-04-24T10:51:47;5.53;;;3.63;;
54805;SDS011;62866;55.776;37.496;2023-04-24T10:54:21;3.93;;;3.03;;
54805;SDS011;62866;55.776;37.496;2023-04-24T11:02:39;4.45;;;3.30;;
54805;SDS011;62866;55.776;37.496;2023-04-24T11:05:08;4.47;;;2.53;;
54805;SDS011;62866;55.776;37.496;2023-04-24T11:11:09;3.70;;;3.28;;
54805;SDS011;62866;55.776;37.496;2023-04-24T11:14:23;4.30;;;3.22;;
54805;SDS011;62866;55.776;37.496;2023-04-24T11:16:28;6.60;;;3.13;;
54805;SDS011;62866;55.776;37.496;2023-04-24T11:21:39;4.75;;;2.97;;
54805;SDS011;62866;55.776;37.496;2023-04-24T11:27:13;3.78;;;3.05;;
54805;SDS011;62866;55.776;37.496;2023-04-24T11:34:56;4.20;;;2.92;;
54805;SDS011;62866;55.776;37.496;2023-04-24T11:37:42;5.57;;;3.17;;
54805;SDS011;62866;55.776;37.496;2023-04-24T11:40:14;6.35;;;3.28;;
54805;SDS011;62866;55.776;37.496;2023-04-24T11:42:42;5.80;;;3.10;;
54805;SDS011;62866;55.776;37.496;2023-04-24T11:45:13;3.13;;;2.50;;
54805;SDS011;62866;55.776;37.496;2023-04-24T11:47:41;4.70;;;2.85;;
54805;SDS011;62866;55.776;37.496;2023-04-24T11:50:08;5.00;;;2.60;;
54805;SDS011;62866;55.776;37.496;2023-04-24T11:52:43;4.38;;;2.95;;
54805;SDS011;62866;55.776;37.496;2023-04-24T11:57:39;6.57;;;3.25;;
54805;SDS011;62866;55.776;37.496;2023-04-24T12:00:14;3.17;;;2.60;;
54805;SDS011;62866;55.776;37.496;2023-04-24T12:02:41;8.32;;;3.35;;
54805;SDS011;62866;55.776;37.496;2023-04-24T12:05:08;4.32;;;3.00;;
54805;SDS011;62866;55.776;37.496;2023-04-24T12:07:40;4.13;;;3.08;;
54805;SDS011;62866;55.776;37.496;2023-04-24T12:10:09;7.28;;;2.58;;
54805;SDS011;62866;55.776;37.496;2023-04-24T12:12:35;4.25;;;3.10;;
54805;SDS011;62866;55.776;37.496;2023-04-24T12:15:01;4.85;;;2.90;;
54805;SDS011;62866;55.776;37.496;2023-04-24T12:17:32;5.07;;;3.00;;
54805;SDS011;62866;55.776;37.496;2023-04-24T12:20:05;5.03;;;2.83;;
54805;SDS011;62866;55.776;37.496;2023-04-24T12:22:45;4.60;;;3.10;;
54805;SDS011;62866;55.776;37.496;2023-04-24T12:25:15;6.18;;;3.13;;
54805;SDS011;62866;55.776;37.496;2023-04-24T12:27:44;3.67;;;2.70;;
54805;SDS011;62866;55.776;37.496;2023-04-24T12:30:12;3.33;;;2.95;;
54805;SDS011;62866;55.776;37.496;2023-04-24T12:32:43;3.58;;;2.78;;
54805;SDS011;62866;55.776;37.496;2023-04-24T12:35:10;4.15;;;2.72;;
54805;SDS011;62866;55.776;37.496;2023-04-24T12:37:36;5.28;;;3.35;;
54805;SDS011;62866;55.776;37.496;2023-04-24T12:42:31;4.25;;;2.80;;
54805;SDS011;62866;55.776;37.496;2023-04-24T12:44:57;4.20;;;2.70;;
54805;SDS011;62866;55.776;37.496;2023-04-24T12:47:28;3.67;;;2.63;;
54805;SDS011;62866;55.776;37.496;2023-04-24T12:49:54;3.67;;;2.40;;
54805;SDS011;62866;55.776;37.496;2023-04-24T12:52:23;3.13;;;2.33;;
54805;SDS011;62866;55.776;37.496;2023-04-24T12:54:51;2.58;;;2.38;;
54805;SDS011;62866;55.776;37.496;2023-04-24T12:57:18;5.53;;;2.55;;
54805;SDS011;62866;55.776;37.496;2023-04-24T12:59:43;6.13;;;3.35;;
54805;SDS011;62866;55.776;37.496;2023-04-24T13:02:09;5.63;;;2.92;;
54805;SDS011;62866;55.776;37.496;2023-04-24T13:04:35;6.30;;;3.67;;
54805;SDS011;62866;55.776;37.496;2023-04-24T13:07:01;3.88;;;3.35;;
54805;SDS011;62866;55.776;37.496;2023-04-24T13:09:27;4.43;;;3.08;;
54805;SDS011;62866;55.776;37.496;2023-04-24T13:11:54;4.05;;;2.97;;
54805;SDS011;62866;55.776;37.496;2023-04-24T13:14:21;3.97;;;2.60;;
54805;SDS011;62866;55.776;37.496;2023-04-24T13:16:47;5.25;;;2.72;;
54805;SDS011;62866;55.776;37.496;2023-04-24T13:19:12;4.10;;;2.67;;
54805;SDS011;62866;55.776;37.496;2023-04-24T13:21:38;5.40;;;2.85;;
54805;SDS011;62866;55.776;37.496;2023-04-24T13:24:03;2.55;;;2.28;;
54805;SDS011;62866;55.776;37.496;2023-04-24T13:26:30;5.32;;;2.80;;
54805;SDS011;62866;55.776;37.496;2023-04-24T13:28:55;4.82;;;2.47;;
54805;SDS011;62866;55.776;37.496;2023-04-24T13:31:21;4.57;;;2.80;;
54805;SDS011;62866;55.776;37.496;2023-04-24T13:33:47;3.22;;;2.20;;
54805;SDS011;62866;55.776;37.496;2023-04-24T13:36:13;3.80;;;2.85;;
54805;SDS011;62866;55.776;37.496;2023-04-24T13:38:38;5.25;;;3.25;;
54805;SDS011;62866;55.776;37.496;2023-04-24T13:41:04;4.32;;;2.92;;
54805;SDS011;62866;55.776;37.496;2023-04-24T13:43:29;3.78;;;2.85;;
54805;SDS011;62866;55.776;37.496;2023-04-24T13:45:55;12.40;;;3.17;;
54805;SDS011;62866;55.776;37.496;2023-04-24T13:48:20;4.25;;;2.88;;
54805;SDS011;62866;55.776;37.496;2023-04-24T13:50:46;3.85;;;2.78;;
54805;SDS011;62866;55.776;37.496;2023-04-24T13:53:14;6.65;;;3.50;;
54805;SDS011;62866;55.776;37.496;2023-04-24T13:55:40;3.00;;;2.42;;
54805;SDS011;62866;55.776;37.496;2023-04-24T13:58:05;6.38;;;3.00;;
54805;SDS011;62866;55.776;37.496;2023-04-24T14:00:31;5.20;;;2.63;;
54805;SDS011;62866;55.776;37.496;2023-04-24T14:02:57;4.47;;;2.75;;
54805;SDS011;62866;55.776;37.496;2023-04-24T14:05:22;6.72;;;2.58;;
54805;SDS011;62866;55.776;37.496;2023-04-24T14:07:48;4.10;;;2.65;;
54805;SDS011;62866;55.776;37.496;2023-04-24T14:10:14;3.03;;;2.17;;
54805;SDS011;62866;55.776;37.496;2023-04-24T14:12:39;4.18;;;2.30;;
54805;SDS011;62866;55.776;37.496;2023-04-24T14:15:05;5.65;;;2.90;;
54805;SDS011;62866;55.776;37.496;2023-04-24T14:17:31;3.65;;;2.60;;
54805;SDS011;62866;55.776;37.496;2023-04-24T14:19:56;4.68;;;2.42;;
54805;SDS011;62866;55.776;37.496;2023-04-24T14:22:24;5.05;;;2.55;;
54805;SDS011;62866;55.776;37.496;2023-04-24T14:24:50;3.00;;;2.55;;
54805;SDS011;62866;55.776;37.496;2023-04-24T14:27:16;4.38;;;2.80;;
54805;SDS011;62866;55.776;37.496;2023-04-24T14:29:41;4.60;;;2.75;;
54805;SDS011;62866;55.776;37.496;2023-04-24T14:32:07;4.68;;;3.28;;
54805;SDS011;62866;55.776;37.496;2023-04-24T14:34:34;4.07;;;2.65;;
54805;SDS011;62866;55.776;37.496;2023-04-24T14:36:59;6.35;;;2.75;;
54805;SDS011;62866;55.776;37.496;2023-04-24T14:39:25;4.00;;;2.83;;
54805;SDS011;62866;55.776;37.496;2023-04-24T14:41:50;3.40;;;2.40;;
54805;SDS011;62866;55.776;37.496;2023-04-24T14:44:16;4.28;;;2.80;;
54805;SDS011;62866;55.776;37.496;2023-04-24T14:46:42;4.38;;;3.40;;
54805;SDS011;62866;55.776;37.496;2023-04-24T14:49:10;4.45;;;2.70;;
54805;SDS011;62866;55.776;37.496;2023-04-24T14:51:37;6.60;;;3.50;;
54805;SDS011;62866;55.776;37.496;2023-04-24T14:54:06;4.38;;;2.88;;